createdAt,value
2023-02-22T00:00:50.161Z,42.90
2023-02-22T00:01:50.061Z,41.70
2023-02-22T00:02:50.010Z,43.70
2023-02-22T00:03:50.029Z,42.70
2023-02-22T00:04:49.978Z,42.40
2023-02-22T00:05:49.962Z,43.40
2023-02-22T00:06:50.015Z,43.30
2023-02-22T00:07:49.952Z,43.60
2023-02-22T00:08:49.936Z,42.70
2023-02-22T00:09:49.926Z,43.20
2023-02-22T00:10:49.895Z,43.90
2023-02-22T00:11:49.904Z,43.50
2023-02-22T00:12:49.912Z,43.90
2023-02-22T00:13:49.894Z,42.60
2023-02-22T00:14:49.861Z,43.70
2023-02-22T00:15:49.889Z,42.90
2023-02-22T00:16:49.834Z,42.30
2023-02-22T00:17:49.865Z,41.90
2023-02-22T00:18:49.852Z,43.70
2023-02-22T00:19:49.818Z,43.20
2023-02-22T00:20:49.797Z,42.90
2023-02-22T00:21:49.809Z,42.50
2023-02-22T00:22:49.794Z,41.70
2023-02-22T00:23:49.782Z,43.20
2023-02-22T00:24:49.748Z,43.70
2023-02-22T00:25:49.771Z,42.30
2023-02-22T00:26:49.762Z,42.90
2023-02-22T00:27:49.749Z,43.70
2023-02-22T00:28:49.734Z,41.70
2023-02-22T00:29:49.689Z,44.20
2023-02-22T00:30:49.708Z,42.00
2023-02-22T00:31:49.791Z,42.40
2023-02-22T00:32:49.687Z,44.30
2023-02-22T00:33:49.672Z,43.50
2023-02-22T00:34:49.655Z,43.70
2023-02-22T00:35:49.657Z,43.60
2023-02-22T00:36:49.709Z,44.70
2023-02-22T00:37:49.638Z,45.50
2023-02-22T00:38:49.622Z,42.10
2023-02-22T00:39:49.613Z,43.90
2023-02-22T00:40:49.578Z,44.50
2023-02-22T00:41:49.621Z,44.50
2023-02-22T00:42:49.558Z,43.00
2023-02-22T00:43:49.598Z,44.60
2023-02-22T00:44:49.539Z,44.60
2023-02-22T00:45:49.574Z,43.00
2023-02-22T00:46:49.511Z,43.10
2023-02-22T00:47:49.576Z,43.90
2023-02-22T00:48:49.507Z,44.30
2023-02-22T00:49:49.513Z,43.00
2023-02-22T00:50:49.471Z,43.10
2023-02-22T00:51:49.539Z,44.30
2023-02-22T00:52:49.476Z,44.00
2023-02-22T00:53:49.483Z,42.20
2023-02-22T00:54:49.444Z,43.30
2023-02-22T00:55:49.440Z,45.20
2023-02-22T00:56:49.417Z,45.50
2023-02-22T00:57:49.421Z,44.30
2023-02-22T00:58:49.453Z,43.80
2023-02-22T00:59:49.432Z,42.00
2023-02-22T01:00:49.445Z,44.40
2023-02-22T01:01:49.387Z,42.30
2023-02-22T01:02:49.341Z,41.60
2023-02-22T01:03:49.365Z,40.50
2023-02-22T01:04:49.340Z,41.70
2023-02-22T01:05:49.329Z,41.90
2023-02-22T01:06:49.326Z,40.90
2023-02-22T01:07:49.328Z,40.60
2023-02-22T01:08:49.349Z,42.70
2023-02-22T01:09:49.289Z,44.20
2023-02-22T01:10:49.275Z,42.90
2023-02-22T01:11:49.264Z,40.30
2023-02-22T01:12:49.263Z,38.40
2023-02-22T01:13:49.277Z,37.70
2023-02-22T01:14:49.229Z,39.50
2023-02-22T01:15:49.246Z,42.10
2023-02-22T01:16:49.269Z,42.30
2023-02-22T01:17:49.210Z,40.90
2023-02-22T01:18:49.198Z,44.40
2023-02-22T01:19:49.179Z,41.20
2023-02-22T01:20:49.187Z,42.80
2023-02-22T01:21:49.186Z,42.50
2023-02-22T01:22:49.171Z,40.30
2023-02-22T01:23:49.143Z,40.00
2023-02-22T01:24:49.146Z,38.40
2023-02-22T01:25:49.117Z,40.70
2023-02-22T01:26:49.154Z,39.00
2023-02-22T01:27:49.083Z,36.00
2023-02-22T01:28:49.104Z,35.00
2023-02-22T01:29:49.105Z,36.70
2023-02-22T01:30:49.204Z,34.30
2023-02-22T01:31:49.068Z,33.90
2023-02-22T01:32:49.066Z,33.30
2023-02-22T01:33:49.103Z,36.00
2023-02-22T01:34:49.007Z,31.40
2023-02-22T01:35:49.061Z,32.50
2023-02-22T01:36:49.013Z,30.60
2023-02-22T01:37:48.990Z,31.50
2023-02-22T01:38:48.995Z,31.40
2023-02-22T01:39:49.031Z,34.30
2023-02-22T01:40:49.002Z,30.80
2023-02-22T01:41:48.994Z,30.90
2023-02-22T01:42:48.953Z,30.10
2023-02-22T01:43:48.937Z,30.50
2023-02-22T01:44:48.936Z,29.60
2023-02-22T01:45:49.032Z,30.30
2023-02-22T01:46:48.901Z,27.50
2023-02-22T01:47:48.880Z,30.30
2023-02-22T01:48:48.877Z,30.60
2023-02-22T01:49:48.931Z,28.10
2023-02-22T01:50:48.956Z,29.20
2023-02-22T01:51:48.850Z,26.60
2023-02-22T01:52:48.837Z,27.20
2023-02-22T01:53:48.820Z,27.90
2023-02-22T01:54:48.855Z,28.70
2023-02-22T01:55:48.827Z,28.50
2023-02-22T01:56:48.780Z,27.20
2023-02-22T01:57:48.799Z,28.40
2023-02-22T01:58:48.760Z,28.40
2023-02-22T01:59:48.784Z,27.30
2023-02-22T02:00:48.810Z,28.20
2023-02-22T02:02:07.455Z,25.60
2023-02-22T02:02:49.067Z,27.80
2023-02-22T02:03:49.096Z,28.90
2023-02-22T02:04:48.955Z,28.60
2023-02-22T02:05:48.834Z,30.70
2023-02-22T02:06:48.825Z,28.50
2023-02-22T02:07:48.712Z,29.70
2023-02-22T02:08:48.742Z,29.50
2023-02-22T02:09:48.699Z,28.50
2023-02-22T02:10:48.721Z,31.40
2023-02-22T02:11:48.687Z,29.00
2023-02-22T02:12:48.844Z,29.40
2023-02-22T02:13:48.655Z,29.20
2023-02-22T02:14:48.731Z,29.70
2023-02-22T02:15:48.680Z,29.90
2023-02-22T02:16:48.760Z,34.50
2023-02-22T02:17:48.633Z,30.20
2023-02-22T02:18:48.680Z,28.10
2023-02-22T02:19:48.665Z,30.00
2023-02-22T02:20:48.651Z,28.80
2023-02-22T02:21:48.634Z,32.20
2023-02-22T02:22:48.705Z,31.80
2023-02-22T02:23:48.558Z,30.00
2023-02-22T02:24:48.615Z,28.10
2023-02-22T02:25:48.602Z,35.50
2023-02-22T02:26:48.666Z,31.20
2023-02-22T02:27:48.548Z,32.70
2023-02-22T02:28:48.531Z,34.90
2023-02-22T02:29:48.522Z,32.20
2023-02-22T02:30:48.529Z,29.50
2023-02-22T02:31:48.683Z,31.00
2023-02-22T02:32:48.540Z,28.30
2023-02-22T02:33:48.532Z,33.00
2023-02-22T02:34:48.521Z,33.60
2023-02-22T02:35:48.548Z,30.20
2023-02-22T02:36:48.432Z,31.10
2023-02-22T02:37:48.461Z,32.70
2023-02-22T02:38:48.479Z,31.50
2023-02-22T02:39:48.453Z,29.50
2023-02-22T02:40:48.461Z,29.60
2023-02-22T02:41:48.459Z,29.20
2023-02-22T02:42:48.446Z,33.80
2023-02-22T02:43:48.394Z,34.40
2023-02-22T02:44:48.401Z,30.70
2023-02-22T02:45:48.426Z,42.10
2023-02-22T02:46:48.409Z,35.70
2023-02-22T02:47:48.372Z,33.80
2023-02-22T02:48:48.329Z,40.50
2023-02-22T02:49:48.408Z,34.50
2023-02-22T02:50:48.295Z,39.60
2023-02-22T02:51:48.294Z,37.60
2023-02-22T02:52:48.300Z,34.60
2023-02-22T02:53:48.302Z,38.80
2023-02-22T02:54:48.312Z,34.10
2023-02-22T02:55:48.308Z,36.00
2023-02-22T02:56:48.386Z,33.70
2023-02-22T02:57:48.214Z,35.40
2023-02-22T02:58:48.247Z,33.40
2023-02-22T02:59:48.231Z,34.90
2023-02-22T03:00:48.253Z,33.80
2023-02-22T03:01:48.206Z,34.00
2023-02-22T03:02:48.243Z,36.10
2023-02-22T03:03:48.202Z,41.50
2023-02-22T03:04:48.232Z,41.20
2023-02-22T03:05:48.267Z,43.30
2023-02-22T03:06:48.163Z,49.10
2023-02-22T03:07:48.202Z,54.80
2023-02-22T03:08:48.209Z,56.90
2023-02-22T03:09:48.226Z,65.60
2023-02-22T03:10:48.160Z,71.00
2023-02-22T03:11:48.149Z,78.50
2023-02-22T03:12:48.172Z,78.60
2023-02-22T03:13:48.091Z,76.40
2023-02-22T03:14:48.061Z,78.70
2023-02-22T03:15:48.043Z,84.70
2023-02-22T03:16:48.049Z,88.50
2023-02-22T03:17:47.994Z,87.80
2023-02-22T03:18:48.142Z,89.50
2023-02-22T03:19:48.029Z,87.10
2023-02-22T03:20:48.019Z,88.00
2023-02-22T03:21:48.047Z,88.80
2023-02-22T03:22:48.063Z,100.40
2023-02-22T03:23:48.042Z,87.70
2023-02-22T03:24:47.996Z,97.90
2023-02-22T03:25:47.967Z,85.20
2023-02-22T03:26:47.930Z,85.40
2023-02-22T03:27:47.974Z,79.90
2023-02-22T03:28:48.086Z,83.70
2023-02-22T03:29:47.979Z,79.60
2023-02-22T03:30:47.993Z,79.50
2023-02-22T03:31:47.986Z,82.30
2023-02-22T03:32:48.038Z,96.70
2023-02-22T03:33:47.848Z,78.50
2023-02-22T03:34:47.868Z,93.40
2023-02-22T03:35:47.825Z,84.40
2023-02-22T03:36:47.785Z,87.00
2023-02-22T03:37:47.831Z,83.80
2023-02-22T03:38:47.802Z,79.20
2023-02-22T03:39:47.764Z,79.50
2023-02-22T03:40:47.785Z,80.50
2023-02-22T03:41:47.759Z,76.40
2023-02-22T03:42:47.740Z,82.70
2023-02-22T03:43:47.964Z,82.90
2023-02-22T03:44:47.752Z,97.30
2023-02-22T03:45:47.835Z,82.00
2023-02-22T03:46:47.753Z,76.30
2023-02-22T03:47:47.780Z,80.60
2023-02-22T03:48:47.816Z,91.90
2023-02-22T03:49:47.786Z,81.90
2023-02-22T03:50:47.775Z,82.10
2023-02-22T03:51:47.846Z,85.60
2023-02-22T03:52:47.697Z,79.20
2023-02-22T03:53:47.738Z,82.40
2023-02-22T03:54:47.745Z,81.80
2023-02-22T03:55:47.786Z,84.20
2023-02-22T03:56:47.688Z,85.10
2023-02-22T03:57:47.612Z,84.70
2023-02-22T03:58:47.703Z,84.70
2023-02-22T03:59:47.629Z,87.60
2023-02-22T04:00:47.618Z,84.40
2023-02-22T04:01:47.668Z,84.90
2023-02-22T04:02:47.569Z,80.00
2023-02-22T04:03:47.594Z,85.00
2023-02-22T04:04:47.784Z,84.10
2023-02-22T04:05:47.628Z,85.60
2023-02-22T04:06:47.520Z,89.30
2023-02-22T04:07:47.598Z,87.00
2023-02-22T04:08:47.560Z,88.80
2023-02-22T04:09:47.551Z,86.40
2023-02-22T04:10:47.511Z,89.40
2023-02-22T04:11:47.501Z,84.50
2023-02-22T04:12:47.473Z,91.40
2023-02-22T04:13:47.492Z,93.70
2023-02-22T04:14:47.574Z,96.20
2023-02-22T04:15:47.495Z,85.10
2023-02-22T04:16:47.434Z,79.40
2023-02-22T04:17:47.425Z,102.80
2023-02-22T04:18:47.440Z,99.50
2023-02-22T04:19:47.406Z,101.30
2023-02-22T04:20:47.414Z,109.20
2023-02-22T04:21:47.373Z,79.80
2023-02-22T04:22:47.515Z,84.30
2023-02-22T04:23:47.382Z,77.80
2023-02-22T04:24:47.382Z,83.90
2023-02-22T04:25:47.328Z,83.20
2023-02-22T04:26:47.385Z,82.70
2023-02-22T04:27:47.352Z,84.50
2023-02-22T04:28:47.297Z,83.10
2023-02-22T04:29:47.330Z,79.70
2023-02-22T04:30:47.355Z,83.40
2023-02-22T04:31:47.379Z,82.10
2023-02-22T04:32:47.309Z,75.80
2023-02-22T04:33:47.344Z,77.50
2023-02-22T04:34:47.279Z,77.20
2023-02-22T04:35:47.291Z,81.30
2023-02-22T04:36:47.197Z,79.90
2023-02-22T04:37:47.278Z,81.50
2023-02-22T04:38:47.232Z,80.80
2023-02-22T04:39:47.780Z,79.20
2023-02-22T04:40:47.177Z,74.70
2023-02-22T04:41:47.286Z,72.80
2023-02-22T04:42:47.179Z,74.90
2023-02-22T04:43:47.202Z,72.80
2023-02-22T04:44:47.204Z,70.80
2023-02-22T04:45:47.224Z,87.20
2023-02-22T04:46:47.162Z,70.80
2023-02-22T04:47:47.102Z,85.10
2023-02-22T04:48:47.130Z,70.90
2023-02-22T04:49:47.123Z,71.60
2023-02-22T04:50:47.155Z,69.00
2023-02-22T04:51:47.122Z,65.90
2023-02-22T04:52:47.150Z,60.00
2023-02-22T04:53:47.201Z,59.60
2023-02-22T04:54:47.069Z,58.80
2023-02-22T04:55:47.073Z,52.50
2023-02-22T04:56:47.022Z,54.40
2023-02-22T04:57:47.072Z,56.10
2023-02-22T04:58:47.047Z,56.40
2023-02-22T04:59:47.010Z,59.20
2023-02-22T05:00:46.998Z,56.10
2023-02-22T05:01:47.147Z,55.20
2023-02-22T05:02:47.099Z,56.30
2023-02-22T05:03:47.123Z,50.30
2023-02-22T05:04:47.050Z,51.00
2023-02-22T05:05:46.972Z,50.60
2023-02-22T05:06:46.997Z,50.50
2023-02-22T05:07:46.963Z,51.30
2023-02-22T05:08:46.941Z,51.10
2023-02-22T05:09:46.903Z,52.60
2023-02-22T05:10:46.950Z,51.20
2023-02-22T05:11:46.928Z,52.30
2023-02-22T05:12:46.947Z,52.00
2023-02-22T05:13:46.959Z,47.40
2023-02-22T05:14:46.999Z,46.60
2023-02-22T05:15:46.952Z,43.80
2023-02-22T05:16:46.852Z,42.60
2023-02-22T05:17:46.871Z,39.20
2023-02-22T05:18:46.828Z,41.60
2023-02-22T05:19:46.821Z,44.40
2023-02-22T05:20:46.793Z,43.20
2023-02-22T05:21:46.857Z,42.40
2023-02-22T05:22:46.819Z,43.50
2023-02-22T05:23:46.842Z,42.30
2023-02-22T05:24:46.760Z,41.10
2023-02-22T05:25:46.770Z,40.80
2023-02-22T05:26:46.842Z,40.50
2023-02-22T05:27:46.836Z,42.20
2023-02-22T05:28:46.873Z,42.00
2023-02-22T05:29:46.751Z,41.30
2023-02-22T05:30:46.965Z,42.10
2023-02-22T05:31:46.830Z,42.30
2023-02-22T05:32:47.165Z,37.30
2023-02-22T05:33:46.717Z,40.50
2023-02-22T05:34:46.882Z,38.70
2023-02-22T05:35:46.658Z,38.90
2023-02-22T05:36:46.665Z,37.90
2023-02-22T05:37:46.770Z,37.20
2023-02-22T05:38:46.637Z,37.20
2023-02-22T05:39:46.632Z,38.60
2023-02-22T05:40:46.692Z,40.70
2023-02-22T05:41:46.577Z,40.20
2023-02-22T05:42:48.890Z,42.20
2023-02-22T05:43:46.614Z,41.20
2023-02-22T05:44:46.661Z,43.10
2023-02-22T05:45:46.558Z,39.60
2023-02-22T05:46:46.612Z,41.20
2023-02-22T05:47:46.550Z,50.70
2023-02-22T05:48:46.514Z,42.10
2023-02-22T05:49:46.526Z,42.90
2023-02-22T05:50:46.544Z,43.10
2023-02-22T05:51:46.501Z,43.20
2023-02-22T05:52:46.496Z,42.60
2023-02-22T05:53:46.519Z,42.30
2023-02-22T05:54:46.508Z,41.50
2023-02-22T05:55:46.685Z,37.70
2023-02-22T05:56:46.492Z,39.20
2023-02-22T05:57:46.488Z,40.70
2023-02-22T05:58:46.416Z,39.70
2023-02-22T05:59:46.409Z,37.00
2023-02-22T06:00:46.505Z,39.40
2023-02-22T06:01:46.456Z,54.60
2023-02-22T06:02:46.406Z,45.00
2023-02-22T06:03:46.355Z,54.00
2023-02-22T06:04:46.404Z,41.80
2023-02-22T06:05:46.381Z,45.60
2023-02-22T06:06:46.274Z,43.10
2023-02-22T06:07:46.388Z,40.20
2023-02-22T06:08:46.365Z,44.60
2023-02-22T06:09:46.436Z,38.80
2023-02-22T06:10:46.284Z,40.80
2023-02-22T06:11:46.327Z,37.90
2023-02-22T06:12:46.340Z,38.40
2023-02-22T06:13:46.255Z,42.80
2023-02-22T06:14:46.233Z,44.10
2023-02-22T06:15:46.241Z,43.10
2023-02-22T06:16:46.241Z,42.60
2023-02-22T06:17:46.217Z,43.50
2023-02-22T06:18:46.159Z,42.30
2023-02-22T06:19:46.188Z,42.50
2023-02-22T06:20:46.281Z,46.50
2023-02-22T06:21:46.151Z,46.20
2023-02-22T06:22:46.147Z,44.90
2023-02-22T06:23:46.124Z,42.00
2023-02-22T06:24:46.129Z,43.30
2023-02-22T06:25:46.158Z,42.70
2023-02-22T06:26:46.125Z,43.40
2023-02-22T06:27:46.091Z,48.80
2023-02-22T06:28:46.080Z,48.10
2023-02-22T06:29:46.045Z,45.50
2023-02-22T06:30:46.083Z,47.10
2023-02-22T06:31:46.116Z,47.40
2023-02-22T06:32:46.005Z,48.30
2023-02-22T06:33:46.003Z,48.50
2023-02-22T06:34:45.998Z,42.60
2023-02-22T06:35:45.992Z,44.10
2023-02-22T06:36:46.061Z,47.20
2023-02-22T06:37:45.987Z,51.20
2023-02-22T06:38:46.005Z,52.10
2023-02-22T06:39:46.068Z,50.80
2023-02-22T06:40:46.055Z,50.90
2023-02-22T06:41:45.992Z,49.90
2023-02-22T06:42:45.981Z,50.90
2023-02-22T06:43:45.968Z,49.70
2023-02-22T06:44:45.964Z,50.20
2023-02-22T06:45:46.052Z,48.80
2023-02-22T06:46:45.893Z,46.60
2023-02-22T06:47:45.913Z,51.00
2023-02-22T06:48:45.924Z,47.50
2023-02-22T06:49:45.901Z,44.80
2023-02-22T06:50:45.829Z,40.50
2023-02-22T06:51:45.885Z,39.60
2023-02-22T06:52:45.888Z,41.00
2023-02-22T06:53:45.905Z,42.10
2023-02-22T06:54:45.844Z,42.60
2023-02-22T06:55:45.858Z,44.00
2023-02-22T06:56:45.831Z,42.00
2023-02-22T06:57:45.833Z,43.70
2023-02-22T06:58:45.796Z,44.60
2023-02-22T06:59:45.828Z,49.80
2023-02-22T07:00:45.816Z,49.80
2023-02-22T07:01:45.769Z,44.10
2023-02-22T07:02:45.803Z,42.80
2023-02-22T07:03:45.817Z,45.80
2023-02-22T07:04:45.841Z,47.60
2023-02-22T07:05:45.729Z,47.70
2023-02-22T07:06:45.750Z,39.00
2023-02-22T07:07:45.697Z,41.80
2023-02-22T07:08:45.774Z,46.10
2023-02-22T07:09:45.689Z,42.20
2023-02-22T07:10:45.632Z,42.30
2023-02-22T07:11:45.708Z,41.80
2023-02-22T07:12:52.623Z,43.30
2023-02-22T07:13:45.617Z,41.80
2023-02-22T07:14:45.604Z,49.80
2023-02-22T07:15:45.567Z,49.20
2023-02-22T07:16:45.684Z,48.80
2023-02-22T07:17:45.561Z,46.30
2023-02-22T07:18:45.552Z,48.80
2023-02-22T07:19:45.885Z,46.10
2023-02-22T07:20:45.507Z,43.10
2023-02-22T07:21:45.575Z,42.60
2023-02-22T07:22:45.553Z,45.50
2023-02-22T07:23:45.495Z,42.50
2023-02-22T07:24:45.479Z,42.20
2023-02-22T07:25:45.517Z,43.10
2023-02-22T07:26:45.636Z,43.50
2023-02-22T07:27:45.511Z,41.70
2023-02-22T07:28:45.509Z,41.30
2023-02-22T07:29:45.429Z,40.60
2023-02-22T07:30:45.598Z,39.30
2023-02-22T07:31:45.400Z,42.90
2023-02-22T07:32:45.488Z,40.20
2023-02-22T07:33:45.399Z,39.70
2023-02-22T07:34:45.407Z,39.10
2023-02-22T07:35:45.400Z,41.50
2023-02-22T07:36:45.388Z,37.80
2023-02-22T07:37:45.371Z,40.30
2023-02-22T07:38:45.368Z,43.10
2023-02-22T07:39:45.344Z,40.40
2023-02-22T07:40:45.367Z,39.30
2023-02-22T07:41:45.337Z,39.30
2023-02-22T07:42:45.316Z,41.00
2023-02-22T07:43:45.359Z,35.00
2023-02-22T07:44:45.550Z,35.30
2023-02-22T07:45:45.370Z,37.90
2023-02-22T07:46:45.279Z,41.00
2023-02-22T07:47:45.235Z,50.40
2023-02-22T07:48:45.254Z,65.10
2023-02-22T07:49:45.268Z,49.70
2023-02-22T07:50:45.248Z,44.20
2023-02-22T07:51:45.265Z,48.90
2023-02-22T07:52:45.230Z,49.30
2023-02-22T07:53:45.191Z,44.80
2023-02-22T07:54:45.204Z,46.80
2023-02-22T07:55:45.169Z,43.70
2023-02-22T07:56:45.158Z,44.90
2023-02-22T07:57:45.149Z,41.80
2023-02-22T07:58:45.136Z,40.20
2023-02-22T07:59:45.487Z,43.30
2023-02-22T08:00:45.298Z,39.10
2023-02-22T08:01:45.141Z,38.30
2023-02-22T08:02:45.163Z,40.30
2023-02-22T08:03:45.131Z,38.60
2023-02-22T08:04:45.116Z,40.70
2023-02-22T08:05:45.109Z,33.60
2023-02-22T08:06:45.113Z,33.40
2023-02-22T08:07:45.041Z,32.70
2023-02-22T08:08:45.033Z,33.00
2023-02-22T08:09:45.034Z,33.50
2023-02-22T08:10:45.212Z,29.70
2023-02-22T08:11:45.024Z,30.90
2023-02-22T08:12:45.035Z,29.50
2023-02-22T08:13:45.000Z,31.20
2023-02-22T08:14:44.974Z,31.40
2023-02-22T08:15:44.971Z,31.70
2023-02-22T08:16:45.058Z,31.50
2023-02-22T08:17:44.950Z,31.20
2023-02-22T08:18:45.097Z,32.80
2023-02-22T08:19:44.932Z,38.90
2023-02-22T08:20:44.933Z,35.00
2023-02-22T08:21:44.896Z,36.20
2023-02-22T08:22:44.914Z,34.40
2023-02-22T08:23:44.889Z,36.00
2023-02-22T08:24:44.886Z,32.00
2023-02-22T08:25:44.864Z,32.70
2023-02-22T08:26:44.877Z,33.20
2023-02-22T08:27:44.848Z,34.10
2023-02-22T08:28:44.849Z,32.00
2023-02-22T08:29:44.945Z,32.70
2023-02-22T08:30:45.017Z,31.30
2023-02-22T08:31:44.987Z,32.20
2023-02-22T08:32:44.981Z,33.40
2023-02-22T08:33:44.769Z,35.50
2023-02-22T08:34:44.801Z,33.90
2023-02-22T08:35:44.770Z,34.40
2023-02-22T08:36:44.769Z,34.10
2023-02-22T08:37:44.736Z,39.60
2023-02-22T08:38:44.712Z,37.50
2023-02-22T08:39:44.736Z,35.40
2023-02-22T08:40:44.770Z,36.40
2023-02-22T08:41:44.717Z,39.40
2023-02-22T08:42:44.692Z,39.70
2023-02-22T08:43:44.668Z,34.70
2023-02-22T08:44:44.680Z,38.60
2023-02-22T08:45:44.722Z,36.20
2023-02-22T08:46:44.660Z,34.10
2023-02-22T08:47:44.683Z,37.90
2023-02-22T08:48:44.624Z,32.30
2023-02-22T08:49:44.647Z,32.70
2023-02-22T08:50:44.658Z,31.90
2023-02-22T08:51:44.638Z,31.40
2023-02-22T08:52:44.589Z,37.00
2023-02-22T08:53:44.579Z,33.20
2023-02-22T08:54:44.550Z,33.90
2023-02-22T08:55:44.554Z,33.10
2023-02-22T08:56:44.533Z,35.20
2023-02-22T08:57:44.556Z,36.10
2023-02-22T08:58:44.526Z,31.00
2023-02-22T08:59:44.504Z,30.80
2023-02-22T09:00:44.496Z,33.70
2023-02-22T09:01:44.558Z,33.10
2023-02-22T09:02:44.538Z,34.20
2023-02-22T09:03:44.503Z,35.10
2023-02-22T09:04:44.486Z,34.40
2023-02-22T09:05:44.582Z,32.80
2023-02-22T09:06:44.457Z,33.90
2023-02-22T09:07:44.423Z,33.90
2023-02-22T09:08:44.420Z,33.80
2023-02-22T09:09:44.431Z,35.40
2023-02-22T09:10:44.424Z,30.80
2023-02-22T09:11:44.603Z,29.50
2023-02-22T09:12:44.423Z,28.40
2023-02-22T09:13:44.348Z,33.10
2023-02-22T09:14:44.377Z,26.80
2023-02-22T09:15:44.368Z,27.40
2023-02-22T09:16:44.391Z,27.10
2023-02-22T09:17:44.312Z,26.50
2023-02-22T09:18:44.732Z,26.30
2023-02-22T09:19:44.352Z,26.50
2023-02-22T09:20:44.279Z,24.90
2023-02-22T09:21:44.279Z,25.10
2023-02-22T09:22:44.251Z,24.00
2023-02-22T09:23:44.268Z,24.60
2023-02-22T09:24:44.248Z,24.80
2023-02-22T09:25:44.289Z,23.60
2023-02-22T09:26:44.263Z,23.80
2023-02-22T09:27:44.321Z,23.50
2023-02-22T09:28:44.210Z,24.40
2023-02-22T09:29:44.187Z,23.70
2023-02-22T09:30:44.211Z,24.00
2023-02-22T09:31:44.266Z,23.50
2023-02-22T09:32:44.437Z,24.60
2023-02-22T09:33:45.865Z,22.60
2023-02-22T09:34:44.132Z,22.80
2023-02-22T09:35:44.133Z,22.40
2023-02-22T09:36:44.205Z,23.90
2023-02-22T09:37:44.129Z,22.90
2023-02-22T09:38:44.136Z,23.60
2023-02-22T09:39:44.142Z,23.50
2023-02-22T09:40:44.109Z,24.90
2023-02-22T09:41:44.088Z,25.90
2023-02-22T09:42:44.103Z,24.70
2023-02-22T09:43:44.068Z,24.80
2023-02-22T09:44:44.053Z,24.80
2023-02-22T09:45:44.177Z,25.10
2023-02-22T09:46:44.044Z,26.30
2023-02-22T09:47:44.037Z,24.80
2023-02-22T09:48:44.014Z,25.80
2023-02-22T09:49:43.981Z,25.90
2023-02-22T09:50:43.996Z,25.10
2023-02-22T09:51:44.013Z,25.60
2023-02-22T09:52:44.014Z,25.50
2023-02-22T09:53:43.961Z,24.80
2023-02-22T09:54:43.973Z,24.40
2023-02-22T09:55:43.957Z,24.30
2023-02-22T09:56:43.975Z,23.60
2023-02-22T09:57:43.921Z,23.80
2023-02-22T09:58:43.943Z,26.10
2023-02-22T09:59:43.882Z,25.50
2023-02-22T10:00:43.944Z,26.90
2023-02-22T10:01:43.851Z,25.20
2023-02-22T10:02:43.915Z,24.50
2023-02-22T10:03:43.928Z,24.80
2023-02-22T10:04:43.853Z,24.20
2023-02-22T10:05:43.905Z,23.60
2023-02-22T10:06:43.859Z,23.70
2023-02-22T10:07:43.868Z,24.40
2023-02-22T10:08:43.826Z,23.60
2023-02-22T10:09:43.807Z,23.70
2023-02-22T10:10:43.764Z,24.30
2023-02-22T10:11:43.761Z,25.80
2023-02-22T10:12:43.756Z,24.50
2023-02-22T10:13:43.767Z,24.60
2023-02-22T10:14:44.156Z,24.30
2023-02-22T10:15:43.749Z,24.50
2023-02-22T10:16:43.734Z,25.00
2023-02-22T10:17:43.705Z,25.00
2023-02-22T10:18:43.695Z,25.90
2023-02-22T10:19:43.724Z,24.30
2023-02-22T10:20:43.676Z,24.50
2023-02-22T10:21:43.666Z,25.10
2023-02-22T10:22:43.678Z,24.80
2023-02-22T10:23:43.681Z,24.10
2023-02-22T10:24:43.675Z,24.50
2023-02-22T10:25:43.666Z,25.30
2023-02-22T10:26:43.659Z,24.30
2023-02-22T10:27:43.612Z,24.30
2023-02-22T10:28:43.608Z,24.00
2023-02-22T10:29:43.585Z,24.70
2023-02-22T10:30:43.643Z,24.30
2023-02-22T10:31:43.595Z,25.00
2023-02-22T10:32:44.187Z,24.50
2023-02-22T10:33:43.540Z,25.10
2023-02-22T10:34:43.612Z,24.70
2023-02-22T10:35:45.945Z,23.60
2023-02-22T10:36:43.550Z,23.70
2023-02-22T10:37:43.558Z,24.20
2023-02-22T10:38:43.515Z,24.40
2023-02-22T10:39:43.522Z,23.20
2023-02-22T10:40:43.499Z,22.80
2023-02-22T10:41:43.465Z,23.50
2023-02-22T10:42:43.493Z,23.10
2023-02-22T10:43:43.441Z,23.10
2023-02-22T10:44:43.433Z,24.10
2023-02-22T10:45:43.440Z,24.10
2023-02-22T10:46:43.436Z,22.70
2023-02-22T10:47:43.377Z,22.80
2023-02-22T10:48:43.446Z,23.30
2023-02-22T10:49:43.368Z,22.10
2023-02-22T10:50:43.358Z,22.90
2023-02-22T10:51:43.369Z,22.50
2023-02-22T10:52:43.349Z,23.80
2023-02-22T10:53:43.316Z,22.40
2023-02-22T10:54:43.324Z,22.60
2023-02-22T10:55:43.323Z,23.10
2023-02-22T10:56:43.319Z,23.40
2023-02-22T10:57:43.277Z,23.00
2023-02-22T10:58:43.273Z,23.00
2023-02-22T10:59:43.254Z,22.10
2023-02-22T11:00:44.232Z,22.60
2023-02-22T11:01:43.347Z,23.70
2023-02-22T11:02:43.231Z,23.90
2023-02-22T11:03:43.234Z,23.50
2023-02-22T11:04:43.253Z,23.60
2023-02-22T11:05:43.204Z,22.70
2023-02-22T11:06:43.228Z,23.20
2023-02-22T11:07:43.221Z,23.40
2023-02-22T11:08:43.173Z,22.70
2023-02-22T11:09:43.140Z,22.60
2023-02-22T11:10:43.216Z,23.60
2023-02-22T11:11:43.196Z,23.40
2023-02-22T11:12:43.174Z,24.10
2023-02-22T11:13:43.129Z,23.30
2023-02-22T11:14:43.142Z,24.20
2023-02-22T11:15:43.156Z,24.50
2023-02-22T11:16:43.185Z,23.80
2023-02-22T11:17:43.100Z,24.00
2023-02-22T11:18:43.098Z,23.60
2023-02-22T11:19:43.069Z,22.30
2023-02-22T11:20:43.049Z,22.70
2023-02-22T11:21:43.038Z,22.90
2023-02-22T11:22:43.067Z,22.30
2023-02-22T11:23:44.801Z,24.10
2023-02-22T11:24:49.090Z,23.70
2023-02-22T11:25:42.999Z,23.40
2023-02-22T11:26:43.007Z,23.80
2023-02-22T11:27:42.979Z,24.00
2023-02-22T11:28:43.006Z,23.50
2023-02-22T11:29:43.002Z,23.90
2023-02-22T11:30:43.061Z,24.40
2023-02-22T11:31:43.010Z,23.70
2023-02-22T11:32:42.928Z,23.90
2023-02-22T11:33:42.941Z,24.40
2023-02-22T11:34:42.920Z,24.00
2023-02-22T11:35:42.912Z,24.80
2023-02-22T11:36:42.881Z,24.90
2023-02-22T11:37:42.880Z,24.90
2023-02-22T11:38:42.889Z,24.50
2023-02-22T11:39:42.908Z,25.00
2023-02-22T11:40:42.860Z,23.80
2023-02-22T11:41:42.847Z,25.10
2023-02-22T11:42:42.822Z,23.90
2023-02-22T11:43:42.804Z,24.30
2023-02-22T11:44:42.856Z,24.20
2023-02-22T11:45:52.842Z,25.20
2023-02-22T11:46:42.867Z,25.40
2023-02-22T11:47:42.811Z,24.90
2023-02-22T11:48:42.785Z,26.90
2023-02-22T11:49:42.766Z,26.50
2023-02-22T11:50:42.744Z,26.10
2023-02-22T11:51:42.727Z,26.80
2023-02-22T11:52:42.740Z,26.90
2023-02-22T11:53:42.700Z,28.10
2023-02-22T11:54:42.722Z,28.90
2023-02-22T11:55:43.623Z,27.60
2023-02-22T11:56:43.044Z,28.70
2023-02-22T11:57:42.673Z,29.40
2023-02-22T11:58:42.715Z,28.90
2023-02-22T11:59:42.646Z,28.60
2023-02-22T12:00:42.624Z,29.80
2023-02-22T12:01:42.621Z,29.40
2023-02-22T12:02:51.819Z,28.40
2023-02-22T12:03:42.727Z,28.20
2023-02-22T12:04:42.718Z,27.10
2023-02-22T12:05:42.668Z,27.20
2023-02-22T12:06:42.567Z,26.80
2023-02-22T12:07:42.547Z,25.80
2023-02-22T12:08:42.560Z,26.60
2023-02-22T12:09:42.579Z,26.40
2023-02-22T12:10:42.561Z,28.60
2023-02-22T12:11:42.540Z,26.30
2023-02-22T12:12:42.525Z,26.50
2023-02-22T12:13:42.528Z,26.60
2023-02-22T12:14:42.539Z,26.60
2023-02-22T12:15:42.511Z,25.90
2023-02-22T12:16:42.468Z,26.30
2023-02-22T12:17:48.162Z,27.40
2023-02-22T12:18:42.475Z,27.50
2023-02-22T12:19:42.459Z,26.10
2023-02-22T12:20:42.474Z,25.70
2023-02-22T12:21:42.413Z,26.70
2023-02-22T12:22:42.478Z,25.50
2023-02-22T12:23:42.410Z,26.70
2023-02-22T12:24:42.395Z,25.60
2023-02-22T12:25:42.388Z,25.50
2023-02-22T12:26:42.385Z,25.30
2023-02-22T12:27:42.393Z,24.80
2023-02-22T12:28:42.387Z,25.20
2023-02-22T12:29:42.367Z,24.50
2023-02-22T12:30:42.527Z,25.70
2023-02-22T12:31:42.400Z,24.90
2023-02-22T12:32:42.397Z,25.00
2023-02-22T12:33:42.326Z,24.20
2023-02-22T12:34:42.310Z,24.70
2023-02-22T12:35:42.283Z,25.40
2023-02-22T12:36:42.288Z,24.20
2023-02-22T12:37:42.279Z,24.10
2023-02-22T12:38:42.249Z,23.00
2023-02-22T12:39:52.815Z,24.20
2023-02-22T12:40:42.237Z,24.60
2023-02-22T12:41:42.241Z,24.30
2023-02-22T12:42:42.217Z,24.30
2023-02-22T12:43:42.242Z,24.50
2023-02-22T12:44:42.189Z,24.80
2023-02-22T12:45:42.213Z,23.40
2023-02-22T12:46:42.376Z,22.80
2023-02-22T12:47:42.157Z,23.70
2023-02-22T12:48:42.152Z,22.90
2023-02-22T12:49:42.169Z,24.40
2023-02-22T12:50:42.168Z,23.70
2023-02-22T12:51:42.136Z,22.90
2023-02-22T12:52:42.111Z,23.10